Terminal Aerodrome Forecast
Issued by NWS

Home | Current Version | Previous Version | Text Only | Print | Product List | Glossary Off
Versions: 1 2 3 4 5 6 7 8 9 10 11 12 13 14 15 16 17 18 19 20 21 22 23

000
FTUS43 KGRB 220531
TAFATW
TAF
KATW 220531Z 2206/2306 05011KT 1SM BR VCSH OVC003
      TEMPO 2206/2210 1/4SM FG
     FM221000 05015G23KT 3/4SM -RA BR OVC002
     FM221300 05017G25KT 1/2SM RA OVC003
     FM230000 04016G25KT 4SM -DZ BR OVC003
     FM230200 03017G25KT 3SM -FZDZSN OVC008=

USA.gov is the U.S. government's official web portal to all federal, state and local government web resources and services.